createdAt,value
2019-02-14T00:00:53.502Z,21.83
2019-02-14T00:03:27.027Z,21.43
2019-02-14T00:06:00.585Z,22.73
2019-02-14T00:08:34.188Z,23.47
2019-02-14T00:11:07.806Z,23.37
2019-02-14T00:13:41.253Z,24.37
2019-02-14T00:16:14.711Z,23.93
2019-02-14T00:18:48.059Z,24.73
2019-02-14T00:21:21.578Z,23.57
2019-02-14T00:23:54.947Z,23.10
2019-02-14T00:26:28.427Z,24.77
2019-02-14T00:29:01.863Z,24.23
2019-02-14T00:31:35.257Z,24.63
2019-02-14T00:34:08.824Z,24.60
2019-02-14T00:36:42.312Z,26.07
2019-02-14T00:39:15.732Z,26.77
2019-02-14T00:41:49.111Z,25.73
2019-02-14T00:44:22.460Z,28.93
2019-02-14T00:46:55.980Z,26.67
2019-02-14T00:49:29.500Z,23.50
2019-02-14T00:52:03.070Z,23.97
2019-02-14T00:54:36.423Z,24.30
2019-02-14T00:57:09.872Z,24.53
2019-02-14T00:59:43.358Z,26.27
2019-02-14T01:02:16.935Z,26.57
2019-02-14T01:04:50.357Z,27.87
2019-02-14T01:07:23.817Z,26.20
2019-02-14T01:09:57.241Z,27.17
2019-02-14T01:12:30.700Z,28.80
2019-02-14T01:15:06.838Z,28.60
2019-02-14T01:17:40.210Z,26.80
2019-02-14T01:20:13.566Z,26.70
2019-02-14T01:22:47.098Z,27.50
2019-02-14T01:25:20.544Z,28.67
2019-02-14T01:27:53.967Z,26.00
2019-02-14T01:30:27.421Z,28.67
2019-02-14T01:33:00.773Z,27.60
2019-02-14T01:35:41.808Z,28.40
2019-02-14T01:38:09.557Z,27.93
2019-02-14T01:40:43.044Z,30.07
2019-02-14T01:43:16.493Z,29.77
2019-02-14T01:45:49.942Z,28.33
2019-02-14T01:48:23.357Z,26.73
2019-02-14T01:50:56.787Z,26.50
2019-02-14T01:53:30.272Z,26.27
2019-02-14T01:56:03.698Z,27.70
2019-02-14T01:58:37.122Z,27.40
2019-02-14T02:01:10.534Z,28.83
2019-02-14T02:03:43.994Z,29.80
2019-02-14T02:06:17.374Z,28.50
2019-02-14T02:08:50.942Z,33.00
2019-02-14T02:11:24.390Z,25.60
2019-02-14T02:13:57.945Z,27.43
2019-02-14T02:16:31.374Z,27.63
2019-02-14T02:19:04.972Z,29.23
2019-02-14T02:21:38.486Z,30.43
2019-02-14T02:24:12.144Z,29.70
2019-02-14T02:26:45.500Z,29.03
2019-02-14T02:29:18.934Z,32.80
2019-02-14T02:31:52.506Z,29.63
2019-02-14T02:34:25.931Z,32.20
2019-02-14T02:36:59.356Z,32.07
2019-02-14T02:39:32.840Z,31.73
2019-02-14T02:42:06.244Z,31.30
2019-02-14T02:44:39.623Z,34.63
2019-02-14T02:47:13.038Z,30.70
2019-02-14T02:49:46.426Z,32.40
2019-02-14T02:52:19.944Z,33.47
2019-02-14T02:54:53.349Z,31.27
2019-02-14T02:57:26.821Z,32.37
2019-02-14T03:00:00.317Z,32.53
2019-02-14T03:02:33.768Z,32.23
2019-02-14T03:05:10.103Z,33.40
2019-02-14T03:07:43.500Z,33.70
2019-02-14T03:10:16.851Z,33.17
2019-02-14T03:12:50.187Z,32.20
2019-02-14T03:15:23.607Z,34.40
2019-02-14T03:17:56.988Z,36.57
2019-02-14T03:20:30.450Z,37.27
2019-02-14T03:23:03.860Z,36.30
2019-02-14T03:25:37.239Z,36.63
2019-02-14T03:28:10.642Z,35.30
2019-02-14T03:30:44.030Z,38.00
2019-02-14T03:33:17.448Z,38.37
2019-02-14T03:35:50.922Z,35.40
2019-02-14T03:38:24.272Z,34.67
2019-02-14T03:40:57.691Z,35.60
2019-02-14T03:43:31.086Z,35.43
2019-02-14T03:46:04.623Z,36.80
2019-02-14T03:48:37.956Z,36.97
2019-02-14T03:51:11.338Z,36.60
2019-02-14T03:53:44.702Z,35.07
2019-02-14T03:56:18.100Z,38.23
2019-02-14T03:58:51.423Z,37.27
2019-02-14T04:01:24.838Z,35.40
2019-02-14T04:03:58.213Z,34.03
2019-02-14T04:06:31.648Z,33.93
2019-02-14T04:09:07.516Z,36.77
2019-02-14T04:11:41.032Z,33.23
2019-02-14T04:14:14.432Z,33.57
2019-02-14T04:16:47.790Z,33.93
2019-02-14T04:19:21.118Z,37.50
2019-02-14T04:21:54.544Z,38.00
2019-02-14T04:24:27.966Z,33.63
2019-02-14T04:27:01.477Z,33.47
2019-02-14T04:29:34.819Z,32.47
2019-02-14T04:32:08.205Z,35.43
2019-02-14T04:34:41.598Z,36.47
2019-02-14T04:37:15.038Z,39.13
2019-02-14T04:39:48.670Z,46.80
2019-02-14T04:42:22.118Z,54.43
2019-02-14T04:44:55.514Z,38.47
2019-02-14T04:47:28.979Z,57.07
2019-02-14T04:50:02.406Z,47.70
2019-02-14T04:52:35.794Z,40.33
2019-02-14T04:55:10.575Z,42.57
2019-02-14T04:57:44.380Z,44.00
2019-02-14T05:00:17.776Z,38.37
2019-02-14T05:02:51.154Z,44.90
2019-02-14T05:05:24.644Z,37.83
2019-02-14T05:07:58.066Z,50.17
2019-02-14T05:10:31.462Z,37.77
2019-02-14T05:13:04.924Z,42.80
2019-02-14T05:15:38.381Z,57.30
2019-02-14T05:18:11.809Z,43.07
2019-02-14T05:20:45.171Z,51.70
2019-02-14T05:23:18.607Z,47.70
2019-02-14T05:25:51.999Z,44.70
2019-02-14T05:28:25.396Z,43.90
2019-02-14T05:30:58.820Z,45.80
2019-02-14T05:33:32.178Z,46.37
2019-02-14T05:36:05.566Z,42.17
2019-02-14T05:38:38.931Z,50.00
2019-02-14T05:41:12.329Z,42.33
2019-02-14T05:43:45.764Z,45.07
2019-02-14T05:46:19.106Z,41.67
2019-02-14T05:48:52.543Z,46.03
2019-02-14T05:51:25.874Z,43.33
2019-02-14T05:53:59.240Z,54.67
2019-02-14T05:56:32.705Z,47.30
2019-02-14T05:59:06.097Z,64.70
2019-02-14T06:01:39.614Z,51.23
2019-02-14T06:04:13.050Z,53.03
2019-02-14T06:06:46.388Z,48.13
2019-02-14T06:09:19.841Z,45.73
2019-02-14T06:11:53.289Z,43.00
2019-02-14T06:14:26.708Z,46.57
2019-02-14T06:17:00.047Z,55.57
2019-02-14T06:19:33.422Z,64.17
2019-02-14T06:22:06.829Z,68.57
2019-02-14T06:24:40.233Z,46.87
2019-02-14T06:27:14.034Z,49.63
2019-02-14T06:29:47.386Z,49.10
2019-02-14T06:32:20.891Z,60.73
2019-02-14T06:34:54.282Z,45.17
2019-02-14T06:37:27.876Z,53.77
2019-02-14T06:40:01.220Z,59.57
2019-02-14T06:42:34.714Z,42.10
2019-02-14T06:45:13.415Z,47.73
2019-02-14T06:47:46.934Z,123.00
2019-02-14T06:50:20.353Z,63.73
2019-02-14T06:52:53.780Z,78.23
2019-02-14T06:55:28.839Z,48.60
2019-02-14T06:58:02.213Z,46.50
2019-02-14T07:00:35.677Z,52.20
2019-02-14T07:03:09.055Z,54.93
2019-02-14T07:05:42.393Z,43.37
2019-02-14T07:08:15.820Z,60.90
2019-02-14T07:10:49.184Z,44.80
2019-02-14T07:13:22.596Z,51.87
2019-02-14T07:15:56.051Z,64.57
2019-02-14T07:18:29.479Z,77.90
2019-02-14T07:21:04.483Z,48.70
2019-02-14T07:23:37.911Z,46.07
2019-02-14T07:26:11.330Z,60.47
2019-02-14T07:28:44.826Z,66.00
2019-02-14T07:31:18.176Z,44.00
2019-02-14T07:33:51.646Z,53.03
2019-02-14T07:36:25.085Z,58.23
2019-02-14T07:38:58.493Z,63.57
2019-02-14T07:41:31.840Z,61.03
2019-02-14T07:44:05.280Z,46.00
2019-02-14T07:46:38.645Z,57.67
2019-02-14T07:49:12.105Z,58.90
2019-02-14T07:51:45.592Z,43.83
2019-02-14T07:54:19.039Z,47.97
2019-02-14T07:56:52.602Z,43.43
2019-02-14T07:59:25.999Z,40.97
2019-02-14T08:01:59.473Z,42.97
2019-02-14T08:04:32.908Z,59.00
2019-02-14T08:07:06.227Z,41.10
2019-02-14T08:09:39.594Z,40.13
2019-02-14T08:12:12.997Z,44.27
2019-02-14T08:14:46.439Z,41.70
2019-02-14T08:17:19.845Z,40.70
2019-02-14T08:19:53.292Z,41.80
2019-02-14T08:22:26.678Z,37.67
2019-02-14T08:25:01.573Z,39.47
2019-02-14T08:27:34.871Z,39.47
2019-02-14T08:30:15.197Z,37.77
2019-02-14T08:32:48.615Z,45.13
2019-02-14T08:35:22.066Z,41.57
2019-02-14T08:37:55.397Z,47.43
2019-02-14T08:40:33.385Z,37.10
2019-02-14T08:43:06.894Z,39.87
2019-02-14T08:45:40.317Z,35.00
2019-02-14T08:48:13.809Z,34.07
2019-02-14T08:50:47.203Z,31.80
2019-02-14T08:53:22.687Z,32.13
2019-02-14T08:55:55.694Z,33.00
2019-02-14T08:58:29.115Z,33.37
2019-02-14T09:01:02.544Z,31.07
2019-02-14T09:03:35.880Z,30.77
2019-02-14T09:06:09.313Z,33.77
2019-02-14T09:08:42.651Z,30.50
2019-02-14T09:11:16.001Z,30.40
2019-02-14T09:13:49.365Z,29.10
2019-02-14T09:16:22.838Z,30.67
2019-02-14T09:18:56.272Z,28.77
2019-02-14T09:21:29.706Z,29.47
2019-02-14T09:24:03.183Z,28.40
2019-02-14T09:26:36.627Z,26.83
2019-02-14T09:29:12.710Z,27.27
2019-02-14T09:31:45.197Z,30.77
2019-02-14T09:34:18.785Z,28.97
2019-02-14T09:36:52.191Z,26.00
2019-02-14T09:39:25.727Z,26.23
2019-02-14T09:41:59.162Z,25.60
2019-02-14T09:44:32.531Z,26.97
2019-02-14T09:47:05.957Z,25.57
2019-02-14T09:49:39.394Z,25.23
2019-02-14T09:52:12.740Z,28.60
2019-02-14T09:54:46.700Z,26.80
2019-02-14T09:57:20.064Z,26.03
2019-02-14T09:59:53.497Z,25.33
2019-02-14T10:02:26.821Z,25.53
2019-02-14T10:05:01.662Z,25.47
2019-02-14T10:07:34.986Z,25.63
2019-02-14T10:10:11.681Z,23.43
2019-02-14T10:12:45.103Z,25.77
2019-02-14T10:15:18.545Z,24.17
2019-02-14T10:17:51.954Z,26.73
2019-02-14T10:20:25.313Z,25.80
2019-02-14T10:22:58.640Z,24.37
2019-02-14T10:25:32.142Z,24.87
2019-02-14T10:28:05.545Z,24.00
2019-02-14T10:30:40.244Z,23.47
2019-02-14T10:33:13.711Z,26.33
2019-02-14T10:35:47.105Z,23.90
2019-02-14T10:38:22.607Z,22.37
2019-02-14T10:40:55.581Z,23.07
2019-02-14T10:43:28.950Z,22.13
2019-02-14T10:46:02.490Z,20.87
2019-02-14T10:48:35.946Z,20.47
2019-02-14T10:51:09.350Z,20.27
2019-02-14T10:53:42.802Z,19.23
2019-02-14T10:56:16.197Z,19.77
2019-02-14T10:58:49.596Z,20.43
2019-02-14T11:01:23.028Z,20.80
2019-02-14T11:03:56.353Z,20.63
2019-02-14T11:06:29.777Z,18.90
2019-02-14T11:09:04.881Z,17.93
2019-02-14T11:11:38.359Z,19.10
2019-02-14T11:14:11.780Z,17.50
2019-02-14T11:16:45.209Z,17.37
2019-02-14T11:19:18.542Z,17.60
2019-02-14T11:21:52.167Z,19.10
2019-02-14T11:24:25.640Z,18.07
2019-02-14T11:26:59.116Z,18.70
2019-02-14T11:29:32.464Z,15.57
2019-02-14T11:32:05.912Z,17.07
2019-02-14T11:34:39.287Z,15.97
2019-02-14T11:37:12.651Z,15.80
2019-02-14T11:39:46.122Z,16.33
2019-02-14T11:42:19.498Z,15.17
2019-02-14T11:44:52.941Z,15.10
2019-02-14T11:47:26.469Z,13.67
2019-02-14T11:49:59.840Z,13.07
2019-02-14T11:52:33.204Z,13.13
2019-02-14T11:55:08.208Z,13.27
2019-02-14T11:57:41.666Z,11.88
2019-02-14T12:00:25.871Z,11.25
2019-02-14T12:02:59.201Z,11.05
2019-02-14T12:05:32.628Z,10.88
2019-02-14T12:08:06.029Z,10.65
2019-02-14T12:10:39.449Z,10.27
2019-02-14T12:13:12.783Z,10.83
2019-02-14T12:15:46.243Z,11.12
2019-02-14T12:18:19.678Z,10.57
2019-02-14T12:20:53.118Z,10.53
2019-02-14T12:23:26.444Z,10.27
2019-02-14T12:25:59.896Z,10.78
2019-02-14T12:28:33.308Z,10.67
2019-02-14T12:31:06.876Z,10.63
2019-02-14T12:33:40.285Z,11.22
2019-02-14T12:36:13.748Z,9.83
2019-02-14T12:38:47.178Z,10.30
2019-02-14T12:41:20.633Z,9.28
2019-02-14T12:43:53.972Z,8.80
2019-02-14T12:46:27.445Z,9.53
2019-02-14T12:49:00.916Z,9.68
2019-02-14T12:51:34.364Z,8.98
2019-02-14T12:54:07.690Z,9.65
2019-02-14T12:56:41.140Z,9.10
2019-02-14T12:59:14.527Z,9.48
2019-02-14T13:01:47.878Z,9.38
2019-02-14T13:04:21.211Z,8.88
2019-02-14T13:06:54.640Z,7.53
2019-02-14T13:09:28.089Z,8.18
2019-02-14T13:12:01.508Z,8.98
2019-02-14T13:14:34.839Z,8.90
2019-02-14T13:17:08.221Z,9.17
2019-02-14T13:19:41.623Z,7.85
2019-02-14T13:22:14.982Z,7.70
2019-02-14T13:24:48.311Z,7.60
2019-02-14T13:27:21.713Z,7.05
2019-02-14T13:29:55.172Z,7.17
2019-02-14T13:32:28.574Z,7.05
2019-02-14T13:35:01.983Z,6.45
2019-02-14T13:37:35.392Z,5.12
2019-02-14T13:40:09.273Z,7.20
2019-02-14T13:42:42.734Z,6.97
2019-02-14T13:45:21.882Z,7.28
2019-02-14T13:47:55.230Z,6.83
2019-02-14T13:50:28.616Z,6.30
2019-02-14T13:53:02.013Z,5.58
2019-02-14T13:55:35.430Z,4.70
2019-02-14T13:58:08.866Z,4.60
2019-02-14T14:00:42.181Z,5.80
2019-02-14T14:03:15.620Z,5.73
2019-02-14T14:05:49.011Z,5.50
2019-02-14T14:08:22.376Z,5.20
2019-02-14T14:10:55.794Z,5.30
2019-02-14T14:13:29.208Z,4.78
2019-02-14T14:16:02.607Z,5.05
2019-02-14T14:18:35.953Z,4.65
2019-02-14T14:21:09.417Z,4.40
2019-02-14T14:23:42.878Z,4.62
2019-02-14T14:26:16.230Z,4.60
2019-02-14T14:28:49.552Z,4.30
2019-02-14T14:31:23.025Z,4.20
2019-02-14T14:33:56.408Z,3.77
2019-02-14T14:36:29.762Z,3.83
2019-02-14T14:39:03.166Z,3.92
2019-02-14T14:41:36.619Z,5.17
2019-02-14T14:44:14.713Z,4.00
2019-02-14T14:46:48.226Z,4.07
2019-02-14T14:49:21.673Z,4.07
2019-02-14T14:51:55.085Z,3.87
2019-02-14T14:54:28.610Z,3.80
2019-02-14T14:57:02.396Z,4.45
2019-02-14T14:59:35.712Z,5.97
2019-02-14T15:02:09.134Z,3.92
2019-02-14T15:04:42.457Z,3.90
2019-02-14T15:07:15.890Z,3.25
2019-02-14T15:09:57.297Z,3.50
2019-02-14T15:12:24.431Z,3.35
2019-02-14T15:14:57.807Z,3.55
2019-02-14T15:17:33.177Z,3.58
2019-02-14T15:20:10.723Z,3.02
2019-02-14T15:22:44.151Z,3.30
2019-02-14T15:25:17.502Z,3.20
2019-02-14T15:27:50.960Z,3.00
2019-02-14T15:30:24.282Z,2.80
2019-02-14T15:32:57.635Z,3.20
2019-02-14T15:35:30.956Z,2.77
2019-02-14T15:38:04.330Z,3.45
2019-02-14T15:40:37.656Z,2.75
2019-02-14T15:43:11.094Z,3.08
2019-02-14T15:45:44.492Z,3.25
2019-02-14T15:48:17.840Z,2.53
2019-02-14T15:50:53.688Z,2.90
2019-02-14T15:53:26.391Z,3.57
2019-02-14T15:55:59.798Z,3.95
2019-02-14T15:58:33.269Z,3.80
2019-02-14T16:01:07.476Z,3.40
2019-02-14T16:03:42.736Z,3.97
2019-02-14T16:06:16.397Z,4.07
2019-02-14T16:08:50.329Z,5.23
2019-02-14T16:11:23.937Z,5.07
2019-02-14T16:13:57.326Z,4.87
2019-02-14T16:16:30.772Z,5.73
2019-02-14T16:19:04.501Z,4.20
2019-02-14T16:21:38.210Z,3.60
2019-02-14T16:24:11.628Z,4.43
2019-02-14T16:26:45.860Z,3.03
2019-02-14T16:29:19.270Z,3.20
2019-02-14T16:31:52.600Z,3.17
2019-02-14T16:34:26.031Z,3.43
2019-02-14T16:36:59.532Z,4.77
2019-02-14T16:39:32.925Z,3.00
2019-02-14T16:42:06.255Z,2.80
2019-02-14T16:44:39.618Z,2.90
2019-02-14T16:47:13.009Z,3.30
2019-02-14T16:49:46.455Z,3.63
2019-02-14T16:52:19.881Z,3.50
2019-02-14T16:54:53.378Z,3.40
2019-02-14T16:57:26.879Z,3.60
2019-02-14T17:00:00.518Z,4.00
2019-02-14T17:02:34.083Z,4.50
2019-02-14T17:05:07.794Z,4.90
2019-02-14T17:07:41.286Z,3.57
2019-02-14T17:10:15.032Z,3.77
2019-02-14T17:12:48.477Z,4.17
2019-02-14T17:15:21.902Z,3.90
2019-02-14T17:17:55.400Z,4.20
2019-02-14T17:20:28.766Z,4.57
2019-02-14T17:23:02.278Z,4.00
2019-02-14T17:25:35.598Z,4.30
2019-02-14T17:28:08.958Z,4.33
2019-02-14T17:30:42.354Z,3.60
2019-02-14T17:33:15.813Z,4.03
2019-02-14T17:35:49.141Z,3.47
2019-02-14T17:38:22.493Z,2.70
2019-02-14T17:40:55.827Z,3.30
2019-02-14T17:43:29.230Z,3.20
2019-02-14T17:46:02.632Z,3.10
2019-02-14T17:48:36.085Z,3.23
2019-02-14T17:51:09.517Z,2.40
2019-02-14T17:53:42.898Z,2.80
2019-02-14T17:56:16.354Z,3.00
2019-02-14T17:58:49.763Z,3.00
2019-02-14T18:01:26.096Z,3.17
2019-02-14T18:03:59.449Z,4.13
2019-02-14T18:06:32.840Z,4.10
2019-02-14T18:09:06.805Z,4.33
2019-02-14T18:11:40.199Z,4.20
2019-02-14T18:14:13.624Z,5.17
2019-02-14T18:16:46.957Z,4.00
2019-02-14T18:19:20.282Z,4.97
2019-02-14T18:21:53.816Z,3.50
2019-02-14T18:24:27.301Z,3.60
2019-02-14T18:27:00.799Z,4.73
2019-02-14T18:29:37.196Z,3.80
2019-02-14T18:32:10.545Z,3.27
2019-02-14T18:34:43.887Z,3.43
2019-02-14T18:37:17.279Z,6.03
2019-02-14T18:39:50.727Z,3.57
2019-02-14T18:42:24.208Z,2.97
2019-02-14T18:44:57.676Z,3.23
2019-02-14T18:47:39.294Z,3.40
2019-02-14T18:50:08.964Z,3.30
2019-02-14T18:52:42.433Z,3.30
2019-02-14T18:55:15.861Z,3.83
2019-02-14T18:57:49.318Z,3.20
2019-02-14T19:00:22.715Z,4.10
2019-02-14T19:02:56.241Z,3.80
2019-02-14T19:05:29.733Z,4.33
2019-02-14T19:08:03.177Z,5.43
2019-02-14T19:10:36.500Z,6.93
2019-02-14T19:13:09.922Z,7.70
2019-02-14T19:15:43.372Z,7.50
2019-02-14T19:18:16.791Z,7.17
2019-02-14T19:20:50.118Z,6.77
2019-02-14T19:23:24.522Z,6.03
2019-02-14T19:25:58.020Z,4.67
2019-02-14T19:28:31.402Z,5.00
2019-02-14T19:31:04.824Z,5.47
2019-02-14T19:33:38.193Z,4.40
2019-02-14T19:36:11.589Z,4.07
2019-02-14T19:38:45.013Z,4.77
2019-02-14T19:41:25.157Z,6.67
2019-02-14T19:43:53.629Z,4.33
2019-02-14T19:46:26.958Z,5.93
2019-02-14T19:49:00.409Z,4.73
2019-02-14T19:51:33.880Z,4.30
2019-02-14T19:54:07.251Z,5.13
2019-02-14T19:56:40.750Z,6.17
2019-02-14T19:59:14.214Z,5.67
2019-02-14T20:01:49.235Z,6.60
2019-02-14T20:04:22.695Z,9.77
2019-02-14T20:06:56.037Z,5.30
2019-02-14T20:09:29.454Z,11.93
2019-02-14T20:12:02.971Z,11.93
2019-02-14T20:14:36.388Z,8.13
2019-02-14T20:17:09.762Z,11.50
2019-02-14T20:19:43.212Z,7.07
2019-02-14T20:22:16.555Z,9.97
2019-02-14T20:24:50.058Z,8.10
2019-02-14T20:27:23.360Z,7.73
2019-02-14T20:29:56.783Z,9.57
2019-02-14T20:32:30.195Z,14.90
2019-02-14T20:35:04.227Z,9.30
2019-02-14T20:37:37.643Z,7.73
2019-02-14T20:40:11.268Z,9.10
2019-02-14T20:42:44.616Z,8.10
2019-02-14T20:45:18.022Z,10.37
2019-02-14T20:47:51.434Z,9.83
2019-02-14T20:50:24.822Z,10.13
2019-02-14T20:52:58.209Z,8.73
2019-02-14T20:55:31.638Z,9.73
2019-02-14T20:58:05.180Z,8.50
2019-02-14T21:00:38.691Z,6.87
2019-02-14T21:03:12.088Z,6.23
2019-02-14T21:05:45.585Z,7.23
2019-02-14T21:08:18.940Z,6.57
2019-02-14T21:10:52.431Z,5.60
2019-02-14T21:13:25.920Z,6.10
2019-02-14T21:15:59.574Z,6.60
2019-02-14T21:18:33.151Z,10.47
2019-02-14T21:21:06.814Z,10.93
2019-02-14T21:23:40.130Z,8.40
2019-02-14T21:26:14.133Z,12.47
2019-02-14T21:28:48.940Z,13.27
2019-02-14T21:31:22.461Z,12.13
2019-02-14T21:33:56.336Z,19.63
2019-02-14T21:36:30.097Z,16.83
2019-02-14T21:39:05.585Z,18.13
2019-02-14T21:41:39.035Z,22.57
2019-02-14T21:44:12.487Z,26.80
2019-02-14T21:46:45.849Z,29.50
2019-02-14T21:49:19.253Z,24.47
2019-02-14T21:51:52.643Z,33.13
2019-02-14T21:54:25.997Z,24.07
2019-02-14T21:56:59.328Z,27.73
2019-02-14T21:59:32.689Z,39.37
2019-02-14T22:02:06.770Z,20.33
2019-02-14T22:04:40.517Z,17.93
2019-02-14T22:07:13.886Z,15.77
2019-02-14T22:09:47.349Z,20.73
2019-02-14T22:12:38.955Z,22.67
2019-02-14T22:14:55.959Z,22.10
2019-02-14T22:17:29.398Z,10.50
2019-02-14T22:20:03.171Z,7.43
2019-02-14T22:22:36.655Z,6.53
2019-02-14T22:25:11.089Z,7.13
2019-02-14T22:27:44.552Z,5.70
2019-02-14T22:30:18.699Z,6.13
2019-02-14T22:32:52.097Z,5.70
2019-02-14T22:35:25.513Z,7.47
2019-02-14T22:37:58.974Z,4.90
2019-02-14T22:40:32.864Z,5.90
2019-02-14T22:43:06.184Z,5.23
2019-02-14T22:45:39.744Z,6.00
2019-02-14T22:48:13.139Z,5.47
2019-02-14T22:50:46.582Z,5.17
2019-02-14T22:53:20.091Z,5.20
2019-02-14T22:55:53.535Z,5.00
2019-02-14T22:58:26.857Z,4.53
2019-02-14T23:01:00.869Z,5.20
2019-02-14T23:03:34.509Z,5.30
2019-02-14T23:06:07.925Z,4.80
2019-02-14T23:08:41.255Z,4.70
2019-02-14T23:11:14.783Z,5.00
2019-02-14T23:13:48.104Z,7.03
2019-02-14T23:16:21.560Z,6.20
2019-02-14T23:18:54.915Z,4.37
2019-02-14T23:21:28.416Z,4.57
2019-02-14T23:24:01.876Z,4.97
2019-02-14T23:26:35.222Z,4.47
2019-02-14T23:29:09.073Z,4.63
2019-02-14T23:31:42.554Z,4.67
2019-02-14T23:34:15.969Z,4.70
2019-02-14T23:36:49.327Z,4.53
2019-02-14T23:39:22.647Z,6.63
2019-02-14T23:41:56.093Z,5.70
2019-02-14T23:44:29.449Z,4.57
2019-02-14T23:47:02.869Z,4.77
2019-02-14T23:49:36.207Z,6.00
2019-02-14T23:52:09.724Z,4.20
2019-02-14T23:54:43.124Z,5.40
2019-02-14T23:57:16.474Z,4.50
2019-02-14T23:59:49.850Z,4.37
